sensor_id;sensor_type;location;lat;lon;timestamp;P1;durP1;ratioP1;P2;durP2;ratioP2
59569;SDS011;45393;44.646;10.900;2022-11-20T00:01:31;120.30;;;56.27;;
59569;SDS011;45393;44.646;10.900;2022-11-20T00:03:57;111.17;;;53.43;;
59569;SDS011;45393;44.646;10.900;2022-11-20T00:06:24;123.50;;;57.03;;
59569;SDS011;45393;44.646;10.900;2022-11-20T00:08:50;119.97;;;57.33;;
59569;SDS011;45393;44.646;10.900;2022-11-20T00:11:20;103.77;;;52.07;;
59569;SDS011;45393;44.646;10.900;2022-11-20T00:13:47;108.87;;;51.50;;
59569;SDS011;45393;44.646;10.900;2022-11-20T00:16:15;132.33;;;59.93;;
59569;SDS011;45393;44.646;10.900;2022-11-20T00:18:41;118.40;;;55.27;;
59569;SDS011;45393;44.646;10.900;2022-11-20T00:21:16;110.47;;;52.50;;
59569;SDS011;45393;44.646;10.900;2022-11-20T00:23:43;120.83;;;57.27;;
59569;SDS011;45393;44.646;10.900;2022-11-20T00:26:11;115.27;;;55.33;;
59569;SDS011;45393;44.646;10.900;2022-11-20T00:28:37;123.77;;;57.83;;
59569;SDS011;45393;44.646;10.900;2022-11-20T00:31:05;99.37;;;51.20;;
59569;SDS011;45393;44.646;10.900;2022-11-20T00:33:31;112.73;;;53.83;;
59569;SDS011;45393;44.646;10.900;2022-11-20T00:36:03;108.93;;;53.57;;
59569;SDS011;45393;44.646;10.900;2022-11-20T00:38:30;108.33;;;53.30;;
59569;SDS011;45393;44.646;10.900;2022-11-20T00:40:57;99.87;;;50.03;;
59569;SDS011;45393;44.646;10.900;2022-11-20T00:43:23;103.80;;;53.67;;
59569;SDS011;45393;44.646;10.900;2022-11-20T00:45:49;95.93;;;50.80;;
59569;SDS011;45393;44.646;10.900;2022-11-20T00:48:15;114.00;;;53.13;;
59569;SDS011;45393;44.646;10.900;2022-11-20T00:50:42;116.43;;;57.33;;
59569;SDS011;45393;44.646;10.900;2022-11-20T00:53:08;125.07;;;57.63;;
59569;SDS011;45393;44.646;10.900;2022-11-20T00:55:34;119.70;;;57.67;;
59569;SDS011;45393;44.646;10.900;2022-11-20T00:58:00;124.70;;;59.50;;
59569;SDS011;45393;44.646;10.900;2022-11-20T01:00:26;114.93;;;55.50;;
59569;SDS011;45393;44.646;10.900;2022-11-20T01:02:52;111.23;;;55.37;;
59569;SDS011;45393;44.646;10.900;2022-11-20T01:05:18;122.70;;;57.23;;
59569;SDS011;45393;44.646;10.900;2022-11-20T01:07:44;120.17;;;55.97;;
59569;SDS011;45393;44.646;10.900;2022-11-20T01:10:11;109.10;;;53.30;;
59569;SDS011;45393;44.646;10.900;2022-11-20T01:12:37;106.27;;;53.63;;
59569;SDS011;45393;44.646;10.900;2022-11-20T01:15:04;109.27;;;52.47;;
59569;SDS011;45393;44.646;10.900;2022-11-20T01:17:30;115.07;;;54.60;;
59569;SDS011;45393;44.646;10.900;2022-11-20T01:19:57;124.93;;;58.53;;
59569;SDS011;45393;44.646;10.900;2022-11-20T01:22:23;99.17;;;51.30;;
59569;SDS011;45393;44.646;10.900;2022-11-20T01:24:49;102.17;;;52.27;;
59569;SDS011;45393;44.646;10.900;2022-11-20T01:27:15;106.47;;;52.23;;
59569;SDS011;45393;44.646;10.900;2022-11-20T01:29:41;102.87;;;52.07;;
59569;SDS011;45393;44.646;10.900;2022-11-20T01:32:07;126.40;;;59.90;;
59569;SDS011;45393;44.646;10.900;2022-11-20T01:34:33;120.37;;;56.73;;
59569;SDS011;45393;44.646;10.900;2022-11-20T01:36:59;106.37;;;51.83;;
59569;SDS011;45393;44.646;10.900;2022-11-20T01:39:26;115.80;;;54.87;;
59569;SDS011;45393;44.646;10.900;2022-11-20T01:41:53;115.20;;;54.80;;
59569;SDS011;45393;44.646;10.900;2022-11-20T01:47:14;113.47;;;54.00;;
59569;SDS011;45393;44.646;10.900;2022-11-20T01:49:52;102.77;;;50.77;;
59569;SDS011;45393;44.646;10.900;2022-11-20T01:52:21;102.77;;;51.27;;
59569;SDS011;45393;44.646;10.900;2022-11-20T01:54:49;89.57;;;49.47;;
59569;SDS011;45393;44.646;10.900;2022-11-20T01:57:16;116.70;;;54.60;;
59569;SDS011;45393;44.646;10.900;2022-11-20T01:59:44;107.50;;;53.57;;
59569;SDS011;45393;44.646;10.900;2022-11-20T02:02:10;116.60;;;55.37;;
59569;SDS011;45393;44.646;10.900;2022-11-20T02:04:37;127.43;;;59.27;;
59569;SDS011;45393;44.646;10.900;2022-11-20T02:07:03;100.70;;;50.17;;
59569;SDS011;45393;44.646;10.900;2022-11-20T02:09:30;119.40;;;56.77;;
59569;SDS011;45393;44.646;10.900;2022-11-20T02:11:56;104.97;;;52.30;;
59569;SDS011;45393;44.646;10.900;2022-11-20T02:14:23;130.90;;;60.27;;
59569;SDS011;45393;44.646;10.900;2022-11-20T02:16:50;131.70;;;59.50;;
59569;SDS011;45393;44.646;10.900;2022-11-20T02:19:37;110.13;;;54.67;;
59569;SDS011;45393;44.646;10.900;2022-11-20T02:24:31;96.43;;;50.20;;
59569;SDS011;45393;44.646;10.900;2022-11-20T02:27:05;102.93;;;52.27;;
59569;SDS011;45393;44.646;10.900;2022-11-20T02:29:36;112.67;;;54.77;;
59569;SDS011;45393;44.646;10.900;2022-11-20T02:32:04;101.80;;;52.37;;
59569;SDS011;45393;44.646;10.900;2022-11-20T02:34:30;114.20;;;55.30;;
59569;SDS011;45393;44.646;10.900;2022-11-20T02:36:56;105.90;;;54.20;;
59569;SDS011;45393;44.646;10.900;2022-11-20T02:39:23;126.83;;;60.00;;
59569;SDS011;45393;44.646;10.900;2022-11-20T02:41:50;115.43;;;55.90;;
59569;SDS011;45393;44.646;10.900;2022-11-20T02:44:17;124.47;;;59.53;;
59569;SDS011;45393;44.646;10.900;2022-11-20T02:46:44;106.87;;;54.67;;
59569;SDS011;45393;44.646;10.900;2022-11-20T02:49:10;102.90;;;54.40;;
59569;SDS011;45393;44.646;10.900;2022-11-20T02:51:36;114.77;;;56.77;;
59569;SDS011;45393;44.646;10.900;2022-11-20T02:54:02;106.67;;;55.47;;
59569;SDS011;45393;44.646;10.900;2022-11-20T02:56:28;100.03;;;51.80;;
59569;SDS011;45393;44.646;10.900;2022-11-20T02:58:55;106.50;;;53.37;;
59569;SDS011;45393;44.646;10.900;2022-11-20T03:01:21;110.03;;;55.00;;
59569;SDS011;45393;44.646;10.900;2022-11-20T03:03:47;101.30;;;51.77;;
59569;SDS011;45393;44.646;10.900;2022-11-20T03:06:14;102.57;;;53.37;;
59569;SDS011;45393;44.646;10.900;2022-11-20T03:08:40;105.33;;;53.53;;
59569;SDS011;45393;44.646;10.900;2022-11-20T03:11:07;101.83;;;54.07;;
59569;SDS011;45393;44.646;10.900;2022-11-20T03:13:33;97.57;;;51.50;;
59569;SDS011;45393;44.646;10.900;2022-11-20T03:16:06;91.80;;;48.60;;
59569;SDS011;45393;44.646;10.900;2022-11-20T03:18:32;113.50;;;55.30;;
59569;SDS011;45393;44.646;10.900;2022-11-20T03:20:58;149.00;;;66.27;;
59569;SDS011;45393;44.646;10.900;2022-11-20T03:23:25;105.70;;;52.83;;
59569;SDS011;45393;44.646;10.900;2022-11-20T03:25:51;107.47;;;53.53;;
59569;SDS011;45393;44.646;10.900;2022-11-20T03:28:17;107.70;;;55.47;;
59569;SDS011;45393;44.646;10.900;2022-11-20T03:30:43;94.60;;;50.20;;
59569;SDS011;45393;44.646;10.900;2022-11-20T03:33:09;85.50;;;48.77;;
59569;SDS011;45393;44.646;10.900;2022-11-20T03:35:35;100.93;;;52.80;;
59569;SDS011;45393;44.646;10.900;2022-11-20T03:38:01;102.53;;;51.97;;
59569;SDS011;45393;44.646;10.900;2022-11-20T03:40:27;106.37;;;54.90;;
59569;SDS011;45393;44.646;10.900;2022-11-20T03:42:53;104.10;;;51.70;;
59569;SDS011;45393;44.646;10.900;2022-11-20T03:45:19;101.60;;;51.67;;
59569;SDS011;45393;44.646;10.900;2022-11-20T03:47:45;103.43;;;52.60;;
59569;SDS011;45393;44.646;10.900;2022-11-20T03:50:12;93.20;;;49.67;;
59569;SDS011;45393;44.646;10.900;2022-11-20T03:52:39;96.07;;;51.63;;
59569;SDS011;45393;44.646;10.900;2022-11-20T03:55:05;130.47;;;58.93;;
59569;SDS011;45393;44.646;10.900;2022-11-20T03:57:32;103.53;;;53.17;;
59569;SDS011;45393;44.646;10.900;2022-11-20T03:59:58;97.27;;;51.57;;
59569;SDS011;45393;44.646;10.900;2022-11-20T04:02:24;104.07;;;52.60;;
59569;SDS011;45393;44.646;10.900;2022-11-20T04:04:50;119.43;;;57.97;;
59569;SDS011;45393;44.646;10.900;2022-11-20T04:07:16;99.10;;;54.27;;
59569;SDS011;45393;44.646;10.900;2022-11-20T04:09:42;99.67;;;52.83;;
59569;SDS011;45393;44.646;10.900;2022-11-20T04:12:08;102.90;;;52.80;;
59569;SDS011;45393;44.646;10.900;2022-11-20T04:14:34;129.97;;;59.50;;
59569;SDS011;45393;44.646;10.900;2022-11-20T04:17:01;104.40;;;54.27;;
59569;SDS011;45393;44.646;10.900;2022-11-20T04:19:27;95.90;;;52.53;;
59569;SDS011;45393;44.646;10.900;2022-11-20T04:21:53;104.23;;;52.67;;
59569;SDS011;45393;44.646;10.900;2022-11-20T04:24:19;102.30;;;53.97;;
59569;SDS011;45393;44.646;10.900;2022-11-20T04:26:45;102.13;;;54.47;;
59569;SDS011;45393;44.646;10.900;2022-11-20T04:29:17;114.47;;;55.33;;
59569;SDS011;45393;44.646;10.900;2022-11-20T04:31:43;108.33;;;55.57;;
59569;SDS011;45393;44.646;10.900;2022-11-20T04:34:10;100.27;;;52.83;;
59569;SDS011;45393;44.646;10.900;2022-11-20T04:36:37;98.43;;;51.67;;
59569;SDS011;45393;44.646;10.900;2022-11-20T04:39:05;125.23;;;60.87;;
59569;SDS011;45393;44.646;10.900;2022-11-20T04:41:35;102.10;;;52.23;;
59569;SDS011;45393;44.646;10.900;2022-11-20T04:44:02;102.97;;;53.67;;
59569;SDS011;45393;44.646;10.900;2022-11-20T04:46:29;99.53;;;52.60;;
59569;SDS011;45393;44.646;10.900;2022-11-20T04:48:56;97.53;;;55.27;;
59569;SDS011;45393;44.646;10.900;2022-11-20T04:51:22;117.00;;;60.23;;
59569;SDS011;45393;44.646;10.900;2022-11-20T04:53:48;164.23;;;70.50;;
59569;SDS011;45393;44.646;10.900;2022-11-20T04:56:14;155.73;;;72.93;;
59569;SDS011;45393;44.646;10.900;2022-11-20T04:58:41;110.00;;;60.00;;
59569;SDS011;45393;44.646;10.900;2022-11-20T05:01:11;164.60;;;78.57;;
59569;SDS011;45393;44.646;10.900;2022-11-20T05:03:38;138.33;;;68.97;;
59569;SDS011;45393;44.646;10.900;2022-11-20T05:06:05;172.67;;;78.47;;
59569;SDS011;45393;44.646;10.900;2022-11-20T05:08:31;156.47;;;77.10;;
59569;SDS011;45393;44.646;10.900;2022-11-20T05:11:04;185.50;;;80.37;;
59569;SDS011;45393;44.646;10.900;2022-11-20T05:13:31;132.23;;;67.80;;
59569;SDS011;45393;44.646;10.900;2022-11-20T05:16:04;123.13;;;63.57;;
59569;SDS011;45393;44.646;10.900;2022-11-20T05:18:31;105.37;;;57.73;;
59569;SDS011;45393;44.646;10.900;2022-11-20T05:20:57;112.00;;;58.73;;
59569;SDS011;45393;44.646;10.900;2022-11-20T05:23:23;126.23;;;64.90;;
59569;SDS011;45393;44.646;10.900;2022-11-20T05:25:53;110.57;;;58.63;;
59569;SDS011;45393;44.646;10.900;2022-11-20T05:28:20;136.53;;;65.63;;
59569;SDS011;45393;44.646;10.900;2022-11-20T05:30:46;152.43;;;72.93;;
59569;SDS011;45393;44.646;10.900;2022-11-20T05:33:12;154.07;;;74.37;;
59569;SDS011;45393;44.646;10.900;2022-11-20T05:35:38;112.70;;;61.63;;
59569;SDS011;45393;44.646;10.900;2022-11-20T05:38:04;105.87;;;58.57;;
59569;SDS011;45393;44.646;10.900;2022-11-20T05:40:30;98.63;;;53.63;;
59569;SDS011;45393;44.646;10.900;2022-11-20T05:42:56;97.83;;;55.90;;
59569;SDS011;45393;44.646;10.900;2022-11-20T05:45:23;132.77;;;65.80;;
59569;SDS011;45393;44.646;10.900;2022-11-20T05:47:49;90.37;;;51.60;;
59569;SDS011;45393;44.646;10.900;2022-11-20T05:50:15;100.00;;;55.90;;
59569;SDS011;45393;44.646;10.900;2022-11-20T05:52:41;139.07;;;67.07;;
59569;SDS011;45393;44.646;10.900;2022-11-20T05:55:07;110.40;;;57.73;;
59569;SDS011;45393;44.646;10.900;2022-11-20T05:57:33;114.30;;;61.37;;
59569;SDS011;45393;44.646;10.900;2022-11-20T05:59:59;131.40;;;64.30;;
59569;SDS011;45393;44.646;10.900;2022-11-20T06:02:25;93.97;;;51.87;;
59569;SDS011;45393;44.646;10.900;2022-11-20T06:04:51;95.17;;;53.53;;
59569;SDS011;45393;44.646;10.900;2022-11-20T06:07:18;138.00;;;67.67;;
59569;SDS011;45393;44.646;10.900;2022-11-20T06:09:44;97.57;;;51.67;;
59569;SDS011;45393;44.646;10.900;2022-11-20T06:12:10;99.70;;;56.10;;
59569;SDS011;45393;44.646;10.900;2022-11-20T06:14:36;95.77;;;53.10;;
59569;SDS011;45393;44.646;10.900;2022-11-20T06:17:02;119.20;;;61.33;;
59569;SDS011;45393;44.646;10.900;2022-11-20T06:19:28;100.17;;;55.17;;
59569;SDS011;45393;44.646;10.900;2022-11-20T06:21:54;111.73;;;57.23;;
59569;SDS011;45393;44.646;10.900;2022-11-20T06:24:20;135.27;;;65.00;;
59569;SDS011;45393;44.646;10.900;2022-11-20T06:26:46;153.50;;;74.07;;
59569;SDS011;45393;44.646;10.900;2022-11-20T06:29:12;88.70;;;52.30;;
59569;SDS011;45393;44.646;10.900;2022-11-20T06:31:38;141.60;;;68.70;;
59569;SDS011;45393;44.646;10.900;2022-11-20T06:34:07;107.17;;;57.77;;
59569;SDS011;45393;44.646;10.900;2022-11-20T06:36:33;120.90;;;63.53;;
59569;SDS011;45393;44.646;10.900;2022-11-20T06:39:00;94.93;;;55.53;;
59569;SDS011;45393;44.646;10.900;2022-11-20T06:41:26;168.73;;;75.67;;
59569;SDS011;45393;44.646;10.900;2022-11-20T06:43:52;126.93;;;64.30;;
59569;SDS011;45393;44.646;10.900;2022-11-20T06:46:19;119.37;;;62.63;;
59569;SDS011;45393;44.646;10.900;2022-11-20T06:48:46;107.77;;;59.90;;
59569;SDS011;45393;44.646;10.900;2022-11-20T06:51:12;120.97;;;63.93;;
59569;SDS011;45393;44.646;10.900;2022-11-20T06:53:38;110.23;;;61.50;;
59569;SDS011;45393;44.646;10.900;2022-11-20T06:56:05;108.00;;;59.60;;
59569;SDS011;45393;44.646;10.900;2022-11-20T06:58:31;149.53;;;73.53;;
59569;SDS011;45393;44.646;10.900;2022-11-20T07:00:58;147.30;;;72.57;;
59569;SDS011;45393;44.646;10.900;2022-11-20T07:03:24;149.80;;;70.77;;
59569;SDS011;45393;44.646;10.900;2022-11-20T07:05:50;128.90;;;66.77;;
59569;SDS011;45393;44.646;10.900;2022-11-20T07:08:17;104.20;;;61.07;;
59569;SDS011;45393;44.646;10.900;2022-11-20T07:10:43;169.33;;;78.20;;
59569;SDS011;45393;44.646;10.900;2022-11-20T07:13:09;122.27;;;66.97;;
59569;SDS011;45393;44.646;10.900;2022-11-20T07:15:35;152.97;;;74.57;;
59569;SDS011;45393;44.646;10.900;2022-11-20T07:18:01;118.87;;;65.03;;
59569;SDS011;45393;44.646;10.900;2022-11-20T07:20:27;104.90;;;60.70;;
59569;SDS011;45393;44.646;10.900;2022-11-20T07:22:54;159.77;;;75.40;;
59569;SDS011;45393;44.646;10.900;2022-11-20T07:25:20;151.37;;;72.77;;
59569;SDS011;45393;44.646;10.900;2022-11-20T07:27:46;115.97;;;63.67;;
59569;SDS011;45393;44.646;10.900;2022-11-20T07:30:13;80.90;;;51.93;;
59569;SDS011;45393;44.646;10.900;2022-11-20T07:32:39;91.43;;;55.20;;
59569;SDS011;45393;44.646;10.900;2022-11-20T07:35:05;95.63;;;56.37;;
59569;SDS011;45393;44.646;10.900;2022-11-20T07:37:35;113.87;;;62.80;;
59569;SDS011;45393;44.646;10.900;2022-11-20T07:40:01;104.37;;;58.93;;
59569;SDS011;45393;44.646;10.900;2022-11-20T07:42:27;84.03;;;53.03;;
59569;SDS011;45393;44.646;10.900;2022-11-20T07:44:53;98.60;;;56.73;;
59569;SDS011;45393;44.646;10.900;2022-11-20T07:47:19;112.97;;;61.30;;
59569;SDS011;45393;44.646;10.900;2022-11-20T07:49:45;85.60;;;52.70;;
59569;SDS011;45393;44.646;10.900;2022-11-20T07:52:11;85.53;;;50.73;;
59569;SDS011;45393;44.646;10.900;2022-11-20T07:54:38;100.27;;;56.77;;
59569;SDS011;45393;44.646;10.900;2022-11-20T07:57:04;98.30;;;56.00;;
59569;SDS011;45393;44.646;10.900;2022-11-20T07:59:30;94.80;;;53.03;;
59569;SDS011;45393;44.646;10.900;2022-11-20T08:01:56;79.17;;;47.60;;
59569;SDS011;45393;44.646;10.900;2022-11-20T08:04:22;93.73;;;54.63;;
59569;SDS011;45393;44.646;10.900;2022-11-20T08:06:48;91.93;;;52.17;;
59569;SDS011;45393;44.646;10.900;2022-11-20T08:09:14;81.70;;;48.27;;
59569;SDS011;45393;44.646;10.900;2022-11-20T08:11:40;92.00;;;55.27;;
59569;SDS011;45393;44.646;10.900;2022-11-20T08:14:25;75.87;;;47.63;;
59569;SDS011;45393;44.646;10.900;2022-11-20T08:16:52;102.83;;;57.37;;
59569;SDS011;45393;44.646;10.900;2022-11-20T08:19:19;98.60;;;55.57;;
59569;SDS011;45393;44.646;10.900;2022-11-20T08:21:45;89.60;;;52.77;;
59569;SDS011;45393;44.646;10.900;2022-11-20T08:24:11;93.07;;;52.77;;
59569;SDS011;45393;44.646;10.900;2022-11-20T08:26:38;83.70;;;50.90;;
59569;SDS011;45393;44.646;10.900;2022-11-20T08:29:04;94.33;;;52.70;;
59569;SDS011;45393;44.646;10.900;2022-11-20T08:31:30;92.37;;;53.53;;
59569;SDS011;45393;44.646;10.900;2022-11-20T08:33:56;90.70;;;51.23;;
59569;SDS011;45393;44.646;10.900;2022-11-20T08:36:23;90.13;;;51.40;;
59569;SDS011;45393;44.646;10.900;2022-11-20T08:38:53;85.23;;;49.97;;
59569;SDS011;45393;44.646;10.900;2022-11-20T08:41:20;86.57;;;49.97;;
59569;SDS011;45393;44.646;10.900;2022-11-20T08:44:10;89.00;;;50.23;;
59569;SDS011;45393;44.646;10.900;2022-11-20T08:46:36;89.57;;;50.43;;
59569;SDS011;45393;44.646;10.900;2022-11-20T08:49:07;93.07;;;51.83;;
59569;SDS011;45393;44.646;10.900;2022-11-20T08:51:34;87.50;;;49.17;;
59569;SDS011;45393;44.646;10.900;2022-11-20T08:54:00;95.13;;;52.03;;
59569;SDS011;45393;44.646;10.900;2022-11-20T08:56:26;90.33;;;50.77;;
59569;SDS011;45393;44.646;10.900;2022-11-20T08:58:52;91.07;;;51.27;;
59569;SDS011;45393;44.646;10.900;2022-11-20T09:01:19;87.23;;;48.87;;
59569;SDS011;45393;44.646;10.900;2022-11-20T09:03:45;79.60;;;46.30;;
59569;SDS011;45393;44.646;10.900;2022-11-20T09:06:12;80.77;;;48.17;;
59569;SDS011;45393;44.646;10.900;2022-11-20T09:08:38;85.30;;;49.23;;
59569;SDS011;45393;44.646;10.900;2022-11-20T09:11:04;81.23;;;47.57;;
59569;SDS011;45393;44.646;10.900;2022-11-20T09:13:31;80.17;;;46.90;;
59569;SDS011;45393;44.646;10.900;2022-11-20T09:16:02;76.80;;;46.23;;
59569;SDS011;45393;44.646;10.900;2022-11-20T09:18:28;75.80;;;44.70;;
59569;SDS011;45393;44.646;10.900;2022-11-20T09:20:57;77.00;;;45.43;;
59569;SDS011;45393;44.646;10.900;2022-11-20T09:23:23;81.40;;;45.27;;
59569;SDS011;45393;44.646;10.900;2022-11-20T09:25:50;78.57;;;46.50;;
59569;SDS011;45393;44.646;10.900;2022-11-20T09:28:17;77.30;;;44.97;;
59569;SDS011;45393;44.646;10.900;2022-11-20T09:30:44;74.07;;;44.13;;
59569;SDS011;45393;44.646;10.900;2022-11-20T09:33:10;75.27;;;44.77;;
59569;SDS011;45393;44.646;10.900;2022-11-20T09:35:36;78.00;;;44.93;;
59569;SDS011;45393;44.646;10.900;2022-11-20T09:38:08;76.20;;;45.20;;
59569;SDS011;45393;44.646;10.900;2022-11-20T09:40:36;75.93;;;44.50;;
59569;SDS011;45393;44.646;10.900;2022-11-20T09:43:07;80.03;;;47.23;;
59569;SDS011;45393;44.646;10.900;2022-11-20T09:50:57;79.63;;;45.97;;
59569;SDS011;45393;44.646;10.900;2022-11-20T09:55:52;77.83;;;45.83;;
59569;SDS011;45393;44.646;10.900;2022-11-20T10:00:55;75.10;;;46.10;;
59569;SDS011;45393;44.646;10.900;2022-11-20T10:03:30;82.20;;;47.70;;
59569;SDS011;45393;44.646;10.900;2022-11-20T10:05:59;75.07;;;45.20;;
59569;SDS011;45393;44.646;10.900;2022-11-20T10:08:30;86.07;;;47.83;;
59569;SDS011;45393;44.646;10.900;2022-11-20T10:11:13;85.27;;;48.93;;
59569;SDS011;45393;44.646;10.900;2022-11-20T10:27:07;86.07;;;47.67;;
59569;SDS011;45393;44.646;10.900;2022-11-20T10:29:36;86.57;;;48.70;;
59569;SDS011;45393;44.646;10.900;2022-11-20T10:32:14;85.87;;;49.17;;
59569;SDS011;45393;44.646;10.900;2022-11-20T10:37:18;86.57;;;49.57;;
59569;SDS011;45393;44.646;10.900;2022-11-20T10:39:50;84.40;;;50.33;;
59569;SDS011;45393;44.646;10.900;2022-11-20T10:42:26;87.37;;;51.33;;
59569;SDS011;45393;44.646;10.900;2022-11-20T10:44:58;80.90;;;48.07;;
59569;SDS011;45393;44.646;10.900;2022-11-20T10:47:27;80.17;;;46.73;;
59569;SDS011;45393;44.646;10.900;2022-11-20T10:49:54;80.90;;;46.67;;
59569;SDS011;45393;44.646;10.900;2022-11-20T11:02:24;80.70;;;47.07;;
59569;SDS011;45393;44.646;10.900;2022-11-20T11:04:58;78.60;;;46.53;;
59569;SDS011;45393;44.646;10.900;2022-11-20T11:07:27;79.80;;;45.60;;
59569;SDS011;45393;44.646;10.900;2022-11-20T11:09:56;79.20;;;46.33;;
59569;SDS011;45393;44.646;10.900;2022-11-20T11:12:26;76.43;;;46.17;;
59569;SDS011;45393;44.646;10.900;2022-11-20T11:14:54;80.03;;;48.67;;
59569;SDS011;45393;44.646;10.900;2022-11-20T11:22:47;83.93;;;46.67;;
59569;SDS011;45393;44.646;10.900;2022-11-20T11:25:33;79.57;;;47.67;;
59569;SDS011;45393;44.646;10.900;2022-11-20T11:28:03;82.40;;;48.00;;
59569;SDS011;45393;44.646;10.900;2022-11-20T11:30:40;82.17;;;47.43;;
59569;SDS011;45393;44.646;10.900;2022-11-20T11:33:08;86.80;;;49.10;;
59569;SDS011;45393;44.646;10.900;2022-11-20T11:35:39;71.90;;;45.40;;
59569;SDS011;45393;44.646;10.900;2022-11-20T11:38:51;79.17;;;47.00;;
59569;SDS011;45393;44.646;10.900;2022-11-20T11:40:59;79.87;;;46.80;;
59569;SDS011;45393;44.646;10.900;2022-11-20T11:43:27;75.17;;;45.70;;
59569;SDS011;45393;44.646;10.900;2022-11-20T11:48:59;82.37;;;48.37;;
59569;SDS011;45393;44.646;10.900;2022-11-20T11:51:29;75.73;;;44.87;;
59569;SDS011;45393;44.646;10.900;2022-11-20T11:53:58;68.30;;;43.00;;
59569;SDS011;45393;44.646;10.900;2022-11-20T11:56:26;76.80;;;45.70;;
59569;SDS011;45393;44.646;10.900;2022-11-20T11:58:53;74.70;;;44.63;;
59569;SDS011;45393;44.646;10.900;2022-11-20T12:01:43;72.27;;;44.17;;
59569;SDS011;45393;44.646;10.900;2022-11-20T12:07:00;70.00;;;42.40;;
59569;SDS011;45393;44.646;10.900;2022-11-20T12:09:31;71.90;;;44.23;;
59569;SDS011;45393;44.646;10.900;2022-11-20T12:12:10;74.20;;;42.73;;
59569;SDS011;45393;44.646;10.900;2022-11-20T12:14:39;68.27;;;42.00;;
59569;SDS011;45393;44.646;10.900;2022-11-20T12:17:15;74.37;;;43.47;;
59569;SDS011;45393;44.646;10.900;2022-11-20T12:19:43;71.70;;;43.23;;
59569;SDS011;45393;44.646;10.900;2022-11-20T12:39:43;67.93;;;42.60;;
59569;SDS011;45393;44.646;10.900;2022-11-20T12:50:08;61.17;;;38.30;;
59569;SDS011;45393;44.646;10.900;2022-11-20T12:55:23;63.63;;;39.33;;
59569;SDS011;45393;44.646;10.900;2022-11-20T12:57:58;67.20;;;41.30;;
59569;SDS011;45393;44.646;10.900;2022-11-20T13:00:26;63.70;;;39.70;;
59569;SDS011;45393;44.646;10.900;2022-11-20T13:05:49;63.57;;;39.47;;
59569;SDS011;45393;44.646;10.900;2022-11-20T13:08:18;62.83;;;38.87;;
59569;SDS011;45393;44.646;10.900;2022-11-20T13:10:49;68.10;;;41.57;;
59569;SDS011;45393;44.646;10.900;2022-11-20T13:14:00;61.10;;;39.10;;
59569;SDS011;45393;44.646;10.900;2022-11-20T13:18:38;59.47;;;38.10;;
59569;SDS011;45393;44.646;10.900;2022-11-20T13:21:14;62.40;;;37.70;;
59569;SDS011;45393;44.646;10.900;2022-11-20T13:23:40;58.57;;;36.33;;
59569;SDS011;45393;44.646;10.900;2022-11-20T13:26:14;59.93;;;36.03;;
59569;SDS011;45393;44.646;10.900;2022-11-20T13:28:41;59.17;;;36.13;;
59569;SDS011;45393;44.646;10.900;2022-11-20T13:34:09;59.70;;;37.10;;
59569;SDS011;45393;44.646;10.900;2022-11-20T13:36:38;55.83;;;34.60;;
59569;SDS011;45393;44.646;10.900;2022-11-20T13:39:23;53.43;;;34.67;;
59569;SDS011;45393;44.646;10.900;2022-11-20T13:41:59;54.87;;;34.43;;
59569;SDS011;45393;44.646;10.900;2022-11-20T13:46:55;51.17;;;31.87;;
59569;SDS011;45393;44.646;10.900;2022-11-20T13:49:24;50.80;;;32.73;;
59569;SDS011;45393;44.646;10.900;2022-11-20T13:51:51;52.03;;;31.97;;
59569;SDS011;45393;44.646;10.900;2022-11-20T14:02:23;48.93;;;31.13;;
59569;SDS011;45393;44.646;10.900;2022-11-20T14:04:52;48.23;;;30.90;;
59569;SDS011;45393;44.646;10.900;2022-11-20T14:07:19;49.27;;;30.93;;
59569;SDS011;45393;44.646;10.900;2022-11-20T14:09:53;46.30;;;30.30;;
59569;SDS011;45393;44.646;10.900;2022-11-20T14:12:21;54.13;;;32.93;;
59569;SDS011;45393;44.646;10.900;2022-11-20T14:14:49;54.80;;;33.30;;
59569;SDS011;45393;44.646;10.900;2022-11-20T14:17:20;54.53;;;33.77;;
59569;SDS011;45393;44.646;10.900;2022-11-20T14:19:47;55.13;;;33.00;;
59569;SDS011;45393;44.646;10.900;2022-11-20T14:24:46;50.93;;;32.70;;
59569;SDS011;45393;44.646;10.900;2022-11-20T14:27:13;53.80;;;32.37;;
59569;SDS011;45393;44.646;10.900;2022-11-20T14:29:39;49.63;;;32.43;;
59569;SDS011;45393;44.646;10.900;2022-11-20T14:32:08;55.40;;;34.60;;
59569;SDS011;45393;44.646;10.900;2022-11-20T14:34:41;54.03;;;35.07;;
59569;SDS011;45393;44.646;10.900;2022-11-20T14:37:12;58.90;;;35.17;;
59569;SDS011;45393;44.646;10.900;2022-11-20T14:39:46;49.13;;;31.83;;
59569;SDS011;45393;44.646;10.900;2022-11-20T14:42:14;50.90;;;32.23;;
59569;SDS011;45393;44.646;10.900;2022-11-20T14:44:41;52.17;;;32.87;;
59569;SDS011;45393;44.646;10.900;2022-11-20T14:47:08;54.50;;;32.13;;
59569;SDS011;45393;44.646;10.900;2022-11-20T14:49:36;51.20;;;31.73;;
59569;SDS011;45393;44.646;10.900;2022-11-20T14:52:09;46.67;;;31.43;;
59569;SDS011;45393;44.646;10.900;2022-11-20T14:54:58;52.03;;;32.07;;
59569;SDS011;45393;44.646;10.900;2022-11-20T15:00:03;53.20;;;32.47;;
59569;SDS011;45393;44.646;10.900;2022-11-20T15:02:30;51.93;;;31.23;;
59569;SDS011;45393;44.646;10.900;2022-11-20T15:04:57;53.03;;;31.83;;
59569;SDS011;45393;44.646;10.900;2022-11-20T15:07:37;51.13;;;30.97;;
59569;SDS011;45393;44.646;10.900;2022-11-20T15:12:31;48.23;;;30.87;;
59569;SDS011;45393;44.646;10.900;2022-11-20T15:14:58;52.80;;;31.47;;
59569;SDS011;45393;44.646;10.900;2022-11-20T15:17:24;50.43;;;31.60;;
59569;SDS011;45393;44.646;10.900;2022-11-20T15:19:51;46.93;;;30.27;;
59569;SDS011;45393;44.646;10.900;2022-11-20T15:22:17;53.50;;;32.40;;
59569;SDS011;45393;44.646;10.900;2022-11-20T15:24:44;50.27;;;32.13;;
59569;SDS011;45393;44.646;10.900;2022-11-20T15:27:10;49.63;;;31.63;;
59569;SDS011;45393;44.646;10.900;2022-11-20T15:29:36;45.63;;;30.80;;
59569;SDS011;45393;44.646;10.900;2022-11-20T15:32:02;53.10;;;30.77;;
59569;SDS011;45393;44.646;10.900;2022-11-20T15:34:28;50.00;;;31.40;;
59569;SDS011;45393;44.646;10.900;2022-11-20T15:36:55;52.40;;;32.40;;
59569;SDS011;45393;44.646;10.900;2022-11-20T15:39:21;51.60;;;32.70;;
59569;SDS011;45393;44.646;10.900;2022-11-20T15:41:47;53.73;;;32.73;;
59569;SDS011;45393;44.646;10.900;2022-11-20T15:44:13;50.23;;;32.20;;
59569;SDS011;45393;44.646;10.900;2022-11-20T15:46:40;53.90;;;33.83;;
59569;SDS011;45393;44.646;10.900;2022-11-20T15:49:13;51.07;;;33.00;;
59569;SDS011;45393;44.646;10.900;2022-11-20T15:51:44;55.47;;;34.83;;
59569;SDS011;45393;44.646;10.900;2022-11-20T15:54:18;57.70;;;33.80;;
59569;SDS011;45393;44.646;10.900;2022-11-20T15:56:47;50.43;;;34.07;;